createdAt,value
2023-05-20T00:00:37.619Z,12.20
2023-05-20T00:03:04.386Z,12.20
2023-05-20T00:05:31.136Z,12.20
2023-05-20T00:07:57.864Z,12.20
2023-05-20T00:10:24.579Z,12.20
2023-05-20T00:12:51.297Z,12.20
2023-05-20T00:15:17.997Z,12.20
2023-05-20T00:17:44.746Z,12.20
2023-05-20T00:20:11.487Z,12.20
2023-05-20T00:22:38.192Z,12.20
2023-05-20T00:25:05.172Z,12.20
2023-05-20T00:27:31.892Z,12.20
2023-05-20T00:29:58.807Z,12.20
2023-05-20T00:32:25.647Z,12.20
2023-05-20T00:34:52.416Z,12.10
2023-05-20T00:37:19.249Z,12.10
2023-05-20T00:39:45.970Z,12.10
2023-05-20T00:42:12.910Z,12.10
2023-05-20T00:44:39.591Z,12.20
2023-05-20T00:47:06.512Z,12.20
2023-05-20T00:49:33.260Z,12.10
2023-05-20T00:52:00.183Z,12.10
2023-05-20T00:54:26.905Z,12.10
2023-05-20T00:56:53.612Z,12.20
2023-05-20T00:59:20.517Z,12.10
2023-05-20T01:01:47.463Z,12.20
2023-05-20T01:04:14.282Z,12.10
2023-05-20T01:06:40.989Z,12.20
2023-05-20T01:09:07.920Z,12.20
2023-05-20T01:11:34.630Z,12.10
2023-05-20T01:14:01.322Z,12.10
2023-05-20T01:16:28.263Z,12.10
2023-05-20T01:18:55.046Z,12.10
2023-05-20T01:21:22.053Z,12.10
2023-05-20T01:23:48.778Z,12.10
2023-05-20T01:26:15.556Z,12.10
2023-05-20T01:28:42.250Z,12.20
2023-05-20T01:31:09.000Z,12.10
2023-05-20T01:33:35.724Z,12.10
2023-05-20T01:36:02.464Z,12.10
2023-05-20T01:38:29.174Z,12.10
2023-05-20T01:40:55.856Z,12.10
2023-05-20T01:43:22.530Z,12.10
2023-05-20T01:45:49.424Z,12.10
2023-05-20T01:48:16.118Z,12.10
2023-05-20T01:50:42.885Z,12.10
2023-05-20T01:53:09.584Z,12.10
2023-05-20T01:55:36.451Z,12.10
2023-05-20T01:58:03.251Z,12.10
2023-05-20T02:00:30.070Z,12.10
2023-05-20T02:02:56.830Z,12.10
2023-05-20T02:05:23.584Z,12.10
2023-05-20T02:07:50.304Z,12.10
2023-05-20T02:10:17.022Z,12.10
2023-05-20T02:12:43.777Z,12.10
2023-05-20T02:15:10.472Z,12.10
2023-05-20T02:17:37.263Z,12.10
2023-05-20T02:20:04.060Z,12.10
2023-05-20T02:22:30.978Z,12.10
2023-05-20T02:24:57.682Z,12.10
2023-05-20T02:27:24.395Z,12.10
2023-05-20T02:29:51.120Z,12.10
2023-05-20T02:32:18.046Z,12.10
2023-05-20T02:34:44.969Z,12.10
2023-05-20T02:37:11.683Z,12.10
2023-05-20T02:39:38.381Z,12.10
2023-05-20T02:42:05.098Z,12.10
2023-05-20T02:44:31.838Z,12.10
2023-05-20T02:46:58.528Z,12.10
2023-05-20T02:49:25.247Z,12.10
2023-05-20T02:51:51.970Z,12.10
2023-05-20T02:54:18.700Z,12.10
2023-05-20T02:56:45.426Z,12.10
2023-05-20T02:59:12.125Z,12.10
2023-05-20T03:01:38.826Z,12.10
2023-05-20T03:04:05.596Z,12.10
2023-05-20T03:06:32.356Z,12.10
2023-05-20T03:08:59.071Z,12.10
2023-05-20T03:11:25.821Z,12.10
2023-05-20T03:13:52.540Z,12.10
2023-05-20T03:16:19.273Z,12.10
2023-05-20T03:18:46.060Z,12.10
2023-05-20T03:21:12.769Z,12.10
2023-05-20T03:23:39.477Z,12.10
2023-05-20T03:26:06.178Z,12.10
2023-05-20T03:28:32.899Z,12.10
2023-05-20T03:30:59.637Z,12.10
2023-05-20T03:33:26.404Z,12.10
2023-05-20T03:35:53.345Z,12.00
2023-05-20T03:38:20.112Z,12.10
2023-05-20T03:40:46.856Z,12.10
2023-05-20T03:43:13.558Z,12.10
2023-05-20T03:45:40.273Z,12.10
2023-05-20T03:48:07.035Z,12.10
2023-05-20T03:50:33.807Z,12.00
2023-05-20T03:53:00.496Z,12.00
2023-05-20T03:55:27.186Z,12.00
2023-05-20T03:57:54.009Z,12.00
2023-05-20T04:00:20.700Z,12.00
2023-05-20T04:02:47.454Z,12.10
2023-05-20T04:05:14.188Z,12.00
2023-05-20T04:07:40.893Z,12.00
2023-05-20T04:10:07.597Z,12.10
2023-05-20T04:12:34.312Z,12.10
2023-05-20T04:15:01.023Z,12.10
2023-05-20T04:17:27.766Z,12.00
2023-05-20T04:19:54.485Z,12.00
2023-05-20T04:22:21.184Z,12.00
2023-05-20T04:24:47.867Z,12.00
2023-05-20T04:27:14.574Z,12.00
2023-05-20T04:29:41.371Z,12.00
2023-05-20T04:32:08.187Z,12.00
2023-05-20T04:34:35.010Z,12.00
2023-05-20T04:37:01.949Z,12.00
2023-05-20T04:39:28.664Z,12.00
2023-05-20T04:41:55.369Z,12.00
2023-05-20T04:44:22.087Z,12.00
2023-05-20T04:46:48.833Z,12.00
2023-05-20T04:49:15.566Z,12.00
2023-05-20T04:51:42.257Z,12.00
2023-05-20T04:54:09.173Z,12.00
2023-05-20T04:56:35.878Z,12.00
2023-05-20T04:59:02.802Z,12.00
2023-05-20T05:01:29.501Z,12.00
2023-05-20T05:03:56.247Z,12.00
2023-05-20T05:06:23.287Z,12.00
2023-05-20T05:08:49.999Z,12.00
2023-05-20T05:11:16.908Z,12.00
2023-05-20T05:13:43.610Z,12.00
2023-05-20T05:16:10.750Z,12.00
2023-05-20T05:18:37.455Z,12.00
2023-05-20T05:21:04.153Z,12.00
2023-05-20T05:23:30.849Z,12.00
2023-05-20T05:25:57.547Z,12.00
2023-05-20T05:28:24.228Z,12.00
2023-05-20T05:30:51.122Z,12.00
2023-05-20T05:33:18.097Z,12.00
2023-05-20T05:35:44.839Z,12.00
2023-05-20T05:38:11.524Z,12.10
2023-05-20T05:40:38.212Z,12.00
2023-05-20T05:43:04.929Z,12.00
2023-05-20T05:48:19.213Z,12.00
2023-05-20T05:50:45.954Z,12.10
2023-05-20T05:53:12.683Z,12.00
2023-05-20T05:55:39.390Z,12.00
2023-05-20T05:58:06.117Z,12.00
2023-05-20T06:00:32.843Z,12.00
2023-05-20T06:02:59.597Z,12.10
2023-05-20T06:05:28.886Z,12.10
2023-05-20T06:07:56.240Z,12.00
2023-05-20T06:10:22.962Z,12.00
2023-05-20T06:12:49.653Z,12.00
2023-05-20T06:15:16.352Z,12.00
2023-05-20T06:17:43.117Z,12.00
2023-05-20T06:20:09.869Z,12.00
2023-05-20T06:22:36.780Z,12.00
2023-05-20T06:25:03.474Z,12.00
2023-05-20T06:27:30.150Z,12.00
2023-05-20T06:29:56.856Z,12.00
2023-05-20T06:32:23.851Z,12.00
2023-05-20T06:34:50.660Z,12.00
2023-05-20T06:37:17.339Z,12.00
2023-05-20T06:39:44.355Z,12.00
2023-05-20T06:42:11.058Z,12.10
2023-05-20T06:44:37.996Z,12.00
2023-05-20T06:47:04.702Z,12.00
2023-05-20T06:49:31.402Z,12.00
2023-05-20T06:51:58.109Z,12.00
2023-05-20T06:54:24.800Z,12.00
2023-05-20T06:56:51.481Z,12.00
2023-05-20T06:59:18.185Z,12.00
2023-05-20T07:01:44.901Z,12.00
2023-05-20T07:04:11.759Z,12.00
2023-05-20T07:06:38.776Z,12.00
2023-05-20T07:09:05.486Z,12.10
2023-05-20T07:11:32.178Z,12.00
2023-05-20T07:13:59.080Z,12.10
2023-05-20T07:16:25.879Z,12.00
2023-05-20T07:18:52.858Z,12.00
2023-05-20T07:21:19.757Z,12.00
2023-05-20T07:23:46.448Z,12.10
2023-05-20T07:26:13.354Z,12.00
2023-05-20T07:28:40.060Z,12.10
2023-05-20T07:31:06.973Z,12.10
2023-05-20T07:33:33.693Z,12.00
2023-05-20T07:36:00.404Z,12.00
2023-05-20T07:38:27.099Z,12.00
2023-05-20T07:40:53.804Z,12.00
2023-05-20T07:43:20.510Z,12.10
2023-05-20T07:45:47.508Z,12.10
2023-05-20T07:48:14.288Z,12.10
2023-05-20T07:50:41.279Z,12.00
2023-05-20T07:53:07.951Z,12.10
2023-05-20T07:55:34.846Z,12.00
2023-05-20T07:58:01.881Z,12.10
2023-05-20T08:00:28.578Z,12.10
2023-05-20T08:02:55.409Z,12.10
2023-05-20T08:05:22.249Z,12.10
2023-05-20T08:07:48.952Z,12.10
2023-05-20T08:10:15.866Z,12.10
2023-05-20T08:12:42.646Z,12.10
2023-05-20T08:15:09.352Z,12.10
2023-05-20T08:17:36.095Z,12.10
2023-05-20T08:20:02.838Z,12.10
2023-05-20T08:22:29.544Z,12.10
2023-05-20T08:24:56.303Z,12.10
2023-05-20T08:27:22.994Z,12.10
2023-05-20T08:29:49.728Z,12.10
2023-05-20T08:32:16.442Z,12.10
2023-05-20T08:34:43.149Z,12.10
2023-05-20T08:37:09.859Z,12.10
2023-05-20T08:39:36.556Z,12.10
2023-05-20T08:42:03.275Z,12.10
2023-05-20T08:44:29.956Z,12.10
2023-05-20T08:46:56.781Z,12.10
2023-05-20T08:49:23.598Z,12.10
2023-05-20T08:51:50.310Z,12.10
2023-05-20T08:54:17.040Z,12.10
2023-05-20T08:56:43.747Z,12.20
2023-05-20T08:59:10.463Z,12.10
2023-05-20T09:01:37.504Z,12.20
2023-05-20T09:04:04.251Z,12.10
2023-05-20T09:06:31.197Z,12.10
2023-05-20T09:08:58.148Z,12.20
2023-05-20T09:11:24.845Z,12.10
2023-05-20T09:13:51.763Z,12.10
2023-05-20T09:16:19.512Z,12.20
2023-05-20T09:18:46.326Z,12.10
2023-05-20T09:21:13.280Z,12.20
2023-05-20T09:23:39.985Z,12.20
2023-05-20T09:26:06.709Z,12.20
2023-05-20T09:28:33.451Z,12.20
2023-05-20T09:31:00.217Z,12.20
2023-05-20T09:33:26.947Z,12.20
2023-05-20T09:35:53.651Z,12.20
2023-05-20T09:38:20.364Z,12.20
2023-05-20T09:40:47.061Z,12.20
2023-05-20T09:43:13.758Z,12.20
2023-05-20T09:45:40.490Z,12.20
2023-05-20T09:48:07.252Z,12.20
2023-05-20T09:50:34.105Z,12.20
2023-05-20T09:53:00.807Z,12.20
2023-05-20T09:55:27.537Z,12.20
2023-05-20T09:57:54.242Z,12.20
2023-05-20T10:00:20.967Z,12.20
2023-05-20T10:02:47.808Z,12.20
2023-05-20T10:05:14.593Z,12.20
2023-05-20T10:07:42.538Z,12.20
2023-05-20T10:10:09.372Z,12.20
2023-05-20T10:12:36.310Z,12.20
2023-05-20T10:15:03.021Z,12.30
2023-05-20T10:17:30.097Z,12.30
2023-05-20T10:19:56.910Z,12.30
2023-05-20T10:22:23.634Z,12.30
2023-05-20T10:24:50.344Z,12.30
2023-05-20T10:27:17.292Z,12.30
2023-05-20T10:29:44.064Z,12.30
2023-05-20T10:32:11.027Z,12.30
2023-05-20T10:34:37.739Z,12.30
2023-05-20T10:37:04.431Z,12.30
2023-05-20T10:39:31.138Z,12.30
2023-05-20T10:41:57.863Z,12.30
2023-05-20T10:44:24.772Z,12.30
2023-05-20T10:49:24.189Z,12.30
2023-05-20T10:51:53.757Z,12.30
2023-05-20T10:54:20.477Z,12.30
2023-05-20T10:56:47.153Z,12.30
2023-05-20T10:59:13.856Z,12.30
2023-05-20T11:01:40.649Z,12.40
2023-05-20T11:04:07.555Z,12.40
2023-05-20T11:06:34.448Z,12.40
2023-05-20T11:09:01.175Z,12.40
2023-05-20T11:11:27.872Z,12.40
2023-05-20T11:13:54.615Z,12.40
2023-05-20T11:16:21.379Z,12.40
2023-05-20T11:18:48.405Z,12.40
2023-05-20T11:21:15.109Z,12.40
2023-05-20T11:23:41.788Z,12.50
2023-05-20T11:26:08.718Z,12.50
2023-05-20T11:28:35.621Z,12.50
2023-05-20T11:31:02.343Z,12.50
2023-05-20T11:33:29.313Z,12.50
2023-05-20T11:35:56.235Z,12.50
2023-05-20T11:38:23.172Z,12.50
2023-05-20T11:40:51.503Z,12.50
2023-05-20T11:43:18.527Z,12.50
2023-05-20T11:45:45.226Z,12.50
2023-05-20T11:48:12.011Z,12.60
2023-05-20T11:50:38.759Z,12.60
2023-05-20T11:53:05.462Z,12.70
2023-05-20T11:55:32.368Z,12.70
2023-05-20T11:57:59.081Z,12.70
2023-05-20T12:00:27.634Z,12.70
2023-05-20T12:02:56.133Z,12.70
2023-05-20T12:05:23.086Z,12.80
2023-05-20T12:07:49.777Z,12.80
2023-05-20T12:10:16.490Z,12.80
2023-05-20T12:12:43.208Z,12.80
2023-05-20T12:15:10.151Z,12.80
2023-05-20T12:17:36.992Z,12.80
2023-05-20T12:20:03.772Z,12.80
2023-05-20T12:22:30.468Z,12.80
2023-05-20T12:24:57.161Z,12.80
2023-05-20T12:27:23.874Z,12.70
2023-05-20T12:29:50.615Z,12.70
2023-05-20T12:32:17.325Z,12.80
2023-05-20T12:34:44.007Z,12.80
2023-05-20T12:37:10.709Z,12.80
2023-05-20T12:39:37.430Z,12.80
2023-05-20T12:42:04.341Z,12.80
2023-05-20T12:44:31.010Z,12.80
2023-05-20T12:46:57.757Z,12.80
2023-05-20T12:49:24.518Z,12.80
2023-05-20T12:51:51.234Z,12.80
2023-05-20T12:54:17.938Z,12.80
2023-05-20T12:56:44.637Z,12.80
2023-05-20T12:59:11.368Z,12.80
2023-05-20T13:01:38.155Z,12.80
2023-05-20T13:04:04.921Z,12.80
2023-05-20T13:06:31.832Z,12.80
2023-05-20T13:08:58.528Z,12.80
2023-05-20T13:11:25.243Z,12.80
2023-05-20T13:13:51.928Z,12.90
2023-05-20T13:16:18.676Z,12.80
2023-05-20T13:18:45.457Z,12.80
2023-05-20T13:21:12.371Z,12.90
2023-05-20T13:23:39.068Z,12.90
2023-05-20T13:26:05.989Z,12.90
2023-05-20T13:28:32.896Z,12.90
2023-05-20T13:30:59.921Z,12.90
2023-05-20T13:33:26.658Z,12.90
2023-05-20T13:35:53.568Z,12.90
2023-05-20T13:38:20.486Z,12.90
2023-05-20T13:40:47.183Z,12.90
2023-05-20T13:43:13.877Z,12.80
2023-05-20T13:45:40.572Z,12.90
2023-05-20T13:48:07.544Z,12.90
2023-05-20T13:50:34.679Z,12.90
2023-05-20T13:53:01.858Z,12.90
2023-05-20T13:55:28.571Z,12.90
2023-05-20T13:57:55.497Z,12.90
2023-05-20T14:00:22.178Z,12.80
2023-05-20T14:02:48.917Z,12.90
2023-05-20T14:05:15.700Z,12.80
2023-05-20T14:07:43.366Z,12.80
2023-05-20T14:10:10.073Z,12.90
2023-05-20T14:12:36.790Z,12.80
2023-05-20T14:15:03.501Z,12.90
2023-05-20T14:17:30.248Z,12.90
2023-05-20T14:19:56.978Z,12.90
2023-05-20T14:22:23.680Z,12.90
2023-05-20T14:24:50.626Z,12.90
2023-05-20T14:27:17.341Z,12.90
2023-05-20T14:29:46.963Z,12.90
2023-05-20T14:32:13.657Z,12.90
2023-05-20T14:34:40.579Z,12.90
2023-05-20T14:37:07.303Z,12.90
2023-05-20T14:39:34.028Z,12.90
2023-05-20T14:42:00.963Z,12.90
2023-05-20T14:44:27.662Z,12.90
2023-05-20T14:46:54.597Z,12.90
2023-05-20T14:49:21.396Z,12.90
2023-05-20T14:51:48.300Z,12.90
2023-05-20T14:54:15.243Z,12.90
2023-05-20T14:56:41.962Z,12.90
2023-05-20T14:59:08.891Z,12.90
2023-05-20T15:01:35.667Z,12.90
2023-05-20T15:04:02.603Z,12.90
2023-05-20T15:06:29.287Z,12.90
2023-05-20T15:08:55.991Z,12.90
2023-05-20T15:11:22.672Z,12.90
2023-05-20T15:13:51.920Z,12.90
2023-05-20T15:16:18.670Z,12.90
2023-05-20T15:18:45.809Z,12.90
2023-05-20T15:21:12.823Z,12.90
2023-05-20T15:23:39.758Z,13.00
2023-05-20T15:26:06.455Z,12.90
2023-05-20T15:28:33.371Z,12.90
2023-05-20T15:31:00.105Z,13.00
2023-05-20T15:33:26.982Z,13.00
2023-05-20T15:35:53.758Z,13.00
2023-05-20T15:38:20.483Z,12.90
2023-05-20T15:40:47.400Z,12.90
2023-05-20T15:43:14.099Z,12.90
2023-05-20T15:45:40.817Z,12.90
2023-05-20T15:48:07.667Z,12.90
2023-05-20T15:50:34.481Z,12.90
2023-05-20T15:53:01.356Z,12.90
2023-05-20T15:55:28.095Z,12.90
2023-05-20T15:57:54.821Z,12.90
2023-05-20T16:00:21.577Z,12.90
2023-05-20T16:02:48.383Z,12.90
2023-05-20T16:05:15.176Z,12.90
2023-05-20T16:07:42.430Z,13.00
2023-05-20T16:10:09.192Z,13.00
2023-05-20T16:12:35.901Z,12.90
2023-05-20T16:15:02.833Z,13.00
2023-05-20T16:17:29.574Z,13.00
2023-05-20T16:19:56.300Z,13.00
2023-05-20T16:22:23.956Z,13.00
2023-05-20T16:24:50.662Z,13.00
2023-05-20T16:27:17.587Z,13.00
2023-05-20T16:29:44.516Z,13.00
2023-05-20T16:32:11.228Z,13.00
2023-05-20T16:34:38.324Z,13.00
2023-05-20T16:37:05.222Z,13.00
2023-05-20T16:39:32.116Z,13.00
2023-05-20T16:41:58.828Z,13.00
2023-05-20T16:44:25.507Z,13.00
2023-05-20T16:46:54.024Z,13.00
2023-05-20T16:49:21.012Z,13.00
2023-05-20T16:51:47.766Z,13.00
2023-05-20T16:54:14.484Z,13.00
2023-05-20T16:56:41.184Z,13.00
2023-05-20T16:59:07.897Z,13.00
2023-05-20T17:01:34.776Z,13.00
2023-05-20T17:04:01.614Z,13.00
2023-05-20T17:06:28.334Z,13.00
2023-05-20T17:08:55.036Z,13.00
2023-05-20T17:11:21.957Z,13.00
2023-05-20T17:13:48.668Z,13.00
2023-05-20T17:16:15.469Z,13.00
2023-05-20T17:18:42.218Z,13.00
2023-05-20T17:21:09.942Z,13.00
2023-05-20T17:23:36.625Z,13.00
2023-05-20T17:26:03.336Z,12.90
2023-05-20T17:28:30.264Z,13.00
2023-05-20T17:30:56.963Z,13.00
2023-05-20T17:33:23.818Z,13.00
2023-05-20T17:35:50.646Z,12.90
2023-05-20T17:38:17.337Z,12.90
2023-05-20T17:40:44.273Z,12.90
2023-05-20T17:43:11.182Z,12.90
2023-05-20T17:45:38.105Z,12.90
2023-05-20T17:48:04.828Z,12.90
2023-05-20T17:50:31.560Z,13.00
2023-05-20T17:52:58.282Z,12.90
2023-05-20T17:55:24.987Z,12.90
2023-05-20T17:57:51.921Z,13.00
2023-05-20T18:00:18.874Z,12.90
2023-05-20T18:02:45.656Z,12.90
2023-05-20T18:05:12.613Z,12.90
2023-05-20T18:07:39.321Z,12.90
2023-05-20T18:10:06.005Z,12.90
2023-05-20T18:12:32.687Z,12.90
2023-05-20T18:14:59.412Z,12.90
2023-05-20T18:17:26.343Z,12.90
2023-05-20T18:19:53.066Z,12.90
2023-05-20T18:22:19.781Z,12.90
2023-05-20T18:24:46.503Z,12.90
2023-05-20T18:27:13.186Z,12.90
2023-05-20T18:29:39.873Z,12.90
2023-05-20T18:32:06.819Z,12.90
2023-05-20T18:34:33.552Z,12.90
2023-05-20T18:37:00.489Z,12.90
2023-05-20T18:39:27.416Z,12.90
2023-05-20T18:41:54.125Z,12.90
2023-05-20T18:44:20.814Z,12.90
2023-05-20T18:46:47.516Z,12.90
2023-05-20T18:49:14.215Z,12.90
2023-05-20T18:51:40.939Z,12.90
2023-05-20T18:54:07.635Z,12.90
2023-05-20T18:56:34.363Z,12.90
2023-05-20T18:59:01.087Z,12.80
2023-05-20T19:01:27.878Z,12.90
2023-05-20T19:03:54.696Z,12.90
2023-05-20T19:06:21.411Z,12.90
2023-05-20T19:08:48.112Z,12.80
2023-05-20T19:11:14.827Z,12.80
2023-05-20T19:13:41.520Z,12.90
2023-05-20T19:16:08.418Z,12.90
2023-05-20T19:18:35.236Z,12.90
2023-05-20T19:21:01.918Z,12.80
2023-05-20T19:23:28.618Z,12.90
2023-05-20T19:25:55.299Z,12.80
2023-05-20T19:28:21.998Z,12.90
2023-05-20T19:30:48.728Z,12.90
2023-05-20T19:33:15.475Z,12.80
2023-05-20T19:35:42.396Z,12.80
2023-05-20T19:38:09.121Z,12.80
2023-05-20T19:40:35.875Z,12.80
2023-05-20T19:43:02.613Z,12.90
2023-05-20T19:45:29.353Z,12.90
2023-05-20T19:47:56.099Z,12.80
2023-05-20T19:50:22.831Z,12.80
2023-05-20T19:52:49.534Z,12.80
2023-05-20T19:55:16.229Z,12.80
2023-05-20T19:57:43.022Z,12.80
2023-05-20T20:00:09.729Z,12.80
2023-05-20T20:02:36.477Z,12.80
2023-05-20T20:05:03.240Z,12.80
2023-05-20T20:07:30.019Z,12.80
2023-05-20T20:09:56.699Z,12.80
2023-05-20T20:12:23.603Z,12.80
2023-05-20T20:14:50.310Z,12.80
2023-05-20T20:17:17.026Z,12.80
2023-05-20T20:19:43.735Z,12.80
2023-05-20T20:22:10.442Z,12.80
2023-05-20T20:24:37.141Z,12.80
2023-05-20T20:27:03.856Z,12.80
2023-05-20T20:29:30.564Z,12.80
2023-05-20T20:31:57.728Z,12.80
2023-05-20T20:34:24.448Z,12.80
2023-05-20T20:36:51.185Z,12.80
2023-05-20T20:39:17.929Z,12.80
2023-05-20T20:41:44.605Z,12.80
2023-05-20T20:44:11.290Z,12.80
2023-05-20T20:46:37.985Z,12.80
2023-05-20T20:49:04.717Z,12.80
2023-05-20T20:51:31.395Z,12.80
2023-05-20T20:53:58.154Z,12.80
2023-05-20T20:56:25.087Z,12.80
2023-05-20T20:58:51.789Z,12.80
2023-05-20T21:01:18.539Z,12.80
2023-05-20T21:03:45.365Z,12.80
2023-05-20T21:06:12.166Z,12.80
2023-05-20T21:08:38.902Z,12.80
2023-05-20T21:11:05.593Z,12.80
2023-05-20T21:13:32.656Z,12.80
2023-05-20T21:15:59.344Z,12.80
2023-05-20T21:18:26.071Z,12.80
2023-05-20T21:20:52.813Z,12.80
2023-05-20T21:23:19.523Z,12.80
2023-05-20T21:25:46.254Z,12.80
2023-05-20T21:28:12.962Z,12.80
2023-05-20T21:30:39.678Z,12.80
2023-05-20T21:33:06.402Z,12.80
2023-05-20T21:35:33.296Z,12.80
2023-05-20T21:38:00.197Z,12.70
2023-05-20T21:40:26.987Z,12.70
2023-05-20T21:42:53.718Z,12.80
2023-05-20T21:45:20.434Z,12.80
2023-05-20T21:47:47.227Z,12.80
2023-05-20T21:50:13.965Z,12.80
2023-05-20T21:52:40.712Z,12.80
2023-05-20T21:55:07.437Z,12.80
2023-05-20T21:57:34.142Z,12.70
2023-05-20T22:00:00.857Z,12.70
2023-05-20T22:02:27.600Z,12.80
2023-05-20T22:04:54.379Z,12.70
2023-05-20T22:07:21.081Z,12.80
2023-05-20T22:09:47.820Z,12.70
2023-05-20T22:12:14.535Z,12.70
2023-05-20T22:14:41.246Z,12.70
2023-05-20T22:17:07.919Z,12.80
2023-05-20T22:19:34.637Z,12.70
2023-05-20T22:22:01.382Z,12.70
2023-05-20T22:24:28.111Z,12.70
2023-05-20T22:26:54.791Z,12.80
2023-05-20T22:29:21.502Z,12.70
2023-05-20T22:31:48.427Z,12.70
2023-05-20T22:34:15.125Z,12.70
2023-05-20T22:36:41.821Z,12.70
2023-05-20T22:39:08.528Z,12.70
2023-05-20T22:41:35.225Z,12.70
2023-05-20T22:44:01.929Z,12.80
2023-05-20T22:46:28.667Z,12.70
2023-05-20T22:48:55.572Z,12.70
2023-05-20T22:51:22.314Z,12.80
2023-05-20T22:53:49.090Z,12.70
2023-05-20T22:56:16.069Z,12.70
2023-05-20T22:58:42.852Z,12.70
2023-05-20T23:01:09.651Z,12.80
2023-05-20T23:03:36.367Z,12.70
2023-05-20T23:06:03.087Z,12.80
2023-05-20T23:08:30.005Z,12.70
2023-05-20T23:10:56.694Z,12.70
2023-05-20T23:13:23.381Z,12.80
2023-05-20T23:15:50.157Z,12.70
2023-05-20T23:18:16.923Z,12.80
2023-05-20T23:20:43.667Z,12.70
2023-05-20T23:23:11.463Z,12.70
2023-05-20T23:25:39.136Z,12.70
2023-05-20T23:28:06.210Z,12.80
2023-05-20T23:30:32.898Z,12.70
2023-05-20T23:32:59.730Z,12.70
2023-05-20T23:35:26.504Z,12.70
2023-05-20T23:37:53.190Z,12.70
2023-05-20T23:40:19.904Z,12.70
2023-05-20T23:42:46.633Z,12.70
2023-05-20T23:45:13.339Z,12.80
2023-05-20T23:47:40.088Z,12.70
2023-05-20T23:50:06.853Z,12.70
2023-05-20T23:52:33.792Z,12.70
2023-05-20T23:55:00.479Z,12.70
2023-05-20T23:57:27.165Z,12.70
2023-05-20T23:59:53.879Z,12.70
